Time,TemperatureF,DewpointF,PressureIn,WindDirection,WindDirectionDegrees,WindSpeedMPH,WindSpeedGustMPH,Humidity,HourlyPrecipIn,Conditions,Clouds,dailyrainin,SoftwareType,DateUTC
2014-04-19 00:10:00,48.7,48.0,30.14,NNE,32,3.0,10.0,97,0.05,,,0.58,weatherlink.com 1.10,2014-04-19 04:10:00,
2014-04-19 00:25:00,48.7,48.0,30.14,NNE,25,3.0,8.0,97,0.03,,,0.58,weatherlink.com 1.10,2014-04-19 04:25:00,
2014-04-19 00:40:00,48.9,48.0,30.13,NNE,33,6.0,8.0,97,0.01,,,0.58,weatherlink.com 1.10,2014-04-19 04:40:00,
2014-04-19 00:55:00,49.0,48.0,30.13,NNE,30,2.0,11.0,97,0.00,,,0.58,weatherlink.com 1.10,2014-04-19 04:55:00,
2014-04-19 01:10:00,49.1,48.0,30.12,ENE,63,7.0,14.0,97,0.00,,,0.58,weatherlink.com 1.10,2014-04-19 05:10:00,
2014-04-19 01:25:00,49.2,48.0,30.12,NE,45,4.0,9.0,97,0.00,,,0.58,weatherlink.com 1.10,2014-04-19 05:25:00,
2014-04-19 01:40:00,49.2,48.0,30.12,ENE,61,0.0,8.0,97,0.00,,,0.58,weatherlink.com 1.10,2014-04-19 05:40:00,
2014-04-19 01:55:00,49.3,49.0,30.12,NNE,20,2.0,8.0,97,0.00,,,0.58,weatherlink.com 1.10,2014-04-19 05:55:00,
2014-04-19 02:10:00,49.4,49.0,30.11,East,83,1.0,6.0,97,0.00,,,0.58,weatherlink.com 1.10,2014-04-19 06:10:00,
2014-04-19 02:25:00,49.6,49.0,30.11,NNE,25,3.0,5.0,96,0.00,,,0.58,weatherlink.com 1.10,2014-04-19 06:25:00,
2014-04-19 02:40:00,49.7,49.0,30.11,NNE,25,2.0,5.0,96,0.00,,,0.58,weatherlink.com 1.10,2014-04-19 06:40:00,
2014-04-19 02:55:00,49.7,49.0,30.10,NE,49,3.0,5.0,96,0.00,,,0.58,weatherlink.com 1.10,2014-04-19 06:55:00,
2014-04-19 03:10:00,49.7,49.0,30.09,NE,41,2.0,4.0,96,0.00,,,0.58,weatherlink.com 1.10,2014-04-19 07:10:00,
2014-04-19 03:25:00,49.7,49.0,30.09,NE,39,3.0,5.0,97,0.00,,,0.58,weatherlink.com 1.10,2014-04-19 07:25:00,
2014-04-19 03:41:00,49.7,49.0,30.09,NE,34,2.0,6.0,97,0.00,,,0.58,weatherlink.com 1.10,2014-04-19 07:41:00,
2014-04-19 03:56:00,49.7,49.0,30.08,ENE,60,4.0,7.0,97,0.00,,,0.58,weatherlink.com 1.10,2014-04-19 07:56:00,
2014-04-19 04:11:00,49.8,49.0,30.08,NNE,22,3.0,8.0,97,0.00,,,0.58,weatherlink.com 1.10,2014-04-19 08:11:00,
2014-04-19 04:26:00,50.0,49.0,30.08,NE,41,1.0,4.0,97,0.00,,,0.58,weatherlink.com 1.10,2014-04-19 08:26:00,
2014-04-19 04:41:00,50.0,49.0,30.08,ENE,59,3.0,7.0,97,0.00,,,0.58,weatherlink.com 1.10,2014-04-19 08:41:00,
2014-04-19 04:56:00,50.3,49.0,30.08,NE,37,2.0,5.0,96,0.00,,,0.58,weatherlink.com 1.10,2014-04-19 08:56:00,
2014-04-19 05:11:00,50.5,49.0,30.08,NE,36,3.0,8.0,96,0.00,,,0.58,weatherlink.com 1.10,2014-04-19 09:11:00,
2014-04-19 05:26:00,50.7,50.0,30.09,NE,34,4.0,7.0,96,0.00,,,0.58,weatherlink.com 1.10,2014-04-19 09:26:00,
2014-04-19 05:41:00,50.8,50.0,30.09,NE,34,3.0,8.0,95,0.00,,,0.58,weatherlink.com 1.10,2014-04-19 09:41:00,
2014-04-19 05:56:00,50.9,50.0,30.09,NNE,27,2.0,6.0,95,0.00,,,0.58,weatherlink.com 1.10,2014-04-19 09:56:00,
2014-04-19 06:11:00,50.8,50.0,30.09,NE,39,2.0,6.0,96,0.01,,,0.59,weatherlink.com 1.10,2014-04-19 10:11:00,
2014-04-19 06:26:00,50.7,50.0,30.10,NE,42,0.0,4.0,97,0.01,,,0.59,weatherlink.com 1.10,2014-04-19 10:26:00,
2014-04-19 06:41:00,50.7,50.0,30.10,North,1,1.0,6.0,97,0.02,,,0.60,weatherlink.com 1.10,2014-04-19 10:41:00,
2014-04-19 06:56:00,50.7,50.0,30.11,NNW,337,0.0,3.0,98,0.03,,,0.61,weatherlink.com 1.10,2014-04-19 10:56:00,
2014-04-19 07:12:00,50.8,50.0,30.11,East,86,2.0,7.0,98,0.03,,,0.62,weatherlink.com 1.10,2014-04-19 11:12:00,
2014-04-19 07:26:00,50.7,50.0,30.11,NE,42,0.0,3.0,98,0.03,,,0.62,weatherlink.com 1.10,2014-04-19 11:26:00,
2014-04-19 07:41:00,50.8,50.0,30.12,NE,51,3.0,4.0,98,0.03,,,0.63,weatherlink.com 1.10,2014-04-19 11:41:00,
2014-04-19 07:56:00,50.9,50.0,30.11,North,8,4.0,11.0,98,0.02,,,0.63,weatherlink.com 1.10,2014-04-19 11:56:00,
2014-04-19 08:11:00,51.2,51.0,30.11,NNE,32,4.0,10.0,98,0.02,,,0.64,weatherlink.com 1.10,2014-04-19 12:11:00,
2014-04-19 08:26:00,51.3,51.0,30.11,ENE,72,2.0,6.0,98,0.02,,,0.64,weatherlink.com 1.10,2014-04-19 12:26:00,
2014-04-19 08:41:00,51.4,51.0,30.11,North,4,4.0,6.0,98,0.01,,,0.64,weatherlink.com 1.10,2014-04-19 12:41:00,
2014-04-19 08:56:00,51.6,51.0,30.11,NNE,12,1.0,6.0,98,0.01,,,0.64,weatherlink.com 1.10,2014-04-19 12:56:00,
2014-04-19 09:11:00,51.7,51.0,30.11,NNE,18,4.0,10.0,98,0.01,,,0.65,weatherlink.com 1.10,2014-04-19 13:11:00,
2014-04-19 09:26:00,52.0,52.0,30.11,NE,53,4.0,8.0,98,0.01,,,0.65,weatherlink.com 1.10,2014-04-19 13:26:00,
2014-04-19 09:41:00,52.1,52.0,30.11,NE,52,4.0,6.0,98,0.01,,,0.65,weatherlink.com 1.10,2014-04-19 13:41:00,
2014-04-19 09:56:00,52.3,52.0,30.11,ENE,60,3.0,9.0,98,0.01,,,0.65,weatherlink.com 1.10,2014-04-19 13:56:00,
2014-04-19 10:11:00,52.5,52.0,30.11,NNE,21,2.0,10.0,98,0.00,,,0.65,weatherlink.com 1.10,2014-04-19 14:11:00,
2014-04-19 10:26:00,52.8,52.0,30.12,North,1,2.0,5.0,98,0.00,,,0.65,weatherlink.com 1.10,2014-04-19 14:26:00,
2014-04-19 10:41:00,53.2,53.0,30.12,NE,39,3.0,9.0,98,0.01,,,0.66,weatherlink.com 1.10,2014-04-19 14:41:00,
2014-04-19 10:56:00,53.5,53.0,30.12,NE,53,1.0,12.0,98,0.01,,,0.66,weatherlink.com 1.10,2014-04-19 14:56:00,
2014-04-19 11:11:00,53.8,53.0,30.12,NNE,28,2.0,13.0,97,0.01,,,0.66,weatherlink.com 1.10,2014-04-19 15:11:00,
2014-04-19 11:26:00,54.2,53.0,30.12,ENE,66,3.0,9.0,97,0.01,,,0.66,weatherlink.com 1.10,2014-04-19 15:26:00,
2014-04-19 11:41:00,54.7,54.0,30.12,NE,39,9.0,14.0,97,0.00,,,0.66,weatherlink.com 1.10,2014-04-19 15:41:00,
2014-04-19 11:56:00,55.4,55.0,30.12,NNE,23,7.0,11.0,97,0.00,,,0.66,weatherlink.com 1.10,2014-04-19 15:56:00,
2014-04-19 12:11:00,55.8,55.0,30.12,North,5,4.0,14.0,96,0.00,,,0.66,weatherlink.com 1.10,2014-04-19 16:11:00,
2014-04-19 12:27:00,56.2,55.0,30.12,NE,42,6.0,10.0,94,0.00,,,0.66,weatherlink.com 1.10,2014-04-19 16:27:00,
2014-04-19 12:42:00,56.5,55.0,30.11,North,356,4.0,13.0,93,0.00,,,0.66,weatherlink.com 1.10,2014-04-19 16:42:00,
2014-04-19 12:57:00,57.1,55.0,30.12,ENE,72,7.0,13.0,91,0.00,,,0.66,weatherlink.com 1.10,2014-04-19 16:57:00,
2014-04-19 13:12:00,57.7,54.0,30.11,ENE,72,6.0,17.0,88,0.00,,,0.66,weatherlink.com 1.10,2014-04-19 17:12:00,
2014-04-19 13:27:00,57.8,54.0,30.11,NNE,32,2.0,10.0,87,0.00,,,0.66,weatherlink.com 1.10,2014-04-19 17:27:00,
2014-04-19 13:42:00,58.0,55.0,30.11,NE,47,1.0,12.0,88,0.00,,,0.66,weatherlink.com 1.10,2014-04-19 17:42:00,
2014-04-19 13:57:00,57.4,55.0,30.11,NE,51,5.0,11.0,91,0.00,,,0.66,weatherlink.com 1.10,2014-04-19 17:57:00,
2014-04-19 14:12:00,56.8,55.0,30.12,North,6,4.0,8.0,94,0.00,,,0.66,weatherlink.com 1.10,2014-04-19 18:12:00,
2014-04-19 14:27:00,56.6,55.0,30.12,NE,39,5.0,14.0,93,0.00,,,0.66,weatherlink.com 1.10,2014-04-19 18:27:00,
2014-04-19 14:42:00,56.6,55.0,30.12,East,80,4.0,9.0,95,0.00,,,0.66,weatherlink.com 1.10,2014-04-19 18:42:00,
2014-04-19 14:57:00,56.1,55.0,30.12,ENE,59,6.0,9.0,95,0.00,,,0.66,weatherlink.com 1.10,2014-04-19 18:57:00,
2014-04-19 15:12:00,56.3,55.0,30.12,NNE,16,2.0,9.0,95,0.00,,,0.66,weatherlink.com 1.10,2014-04-19 19:12:00,
2014-04-19 15:27:00,56.3,55.0,30.12,North,7,2.0,13.0,95,0.00,,,0.66,weatherlink.com 1.10,2014-04-19 19:27:00,
2014-04-19 15:42:00,56.1,55.0,30.12,NNE,15,3.0,8.0,96,0.00,,,0.66,weatherlink.com 1.10,2014-04-19 19:42:00,
2014-04-19 15:57:00,56.0,55.0,30.12,NE,44,5.0,14.0,96,0.00,,,0.66,weatherlink.com 1.10,2014-04-19 19:57:00,
2014-04-19 16:12:00,56.0,55.0,30.12,NNW,330,2.0,8.0,96,0.00,,,0.66,weatherlink.com 1.10,2014-04-19 20:12:00,
2014-04-19 16:27:00,56.0,55.0,30.12,North,356,4.0,14.0,96,0.00,,,0.66,weatherlink.com 1.10,2014-04-19 20:27:00,
2014-04-19 16:42:00,55.8,55.0,30.12,NNE,27,3.0,10.0,96,0.01,,,0.67,weatherlink.com 1.10,2014-04-19 20:42:00,
2014-04-19 16:57:00,55.1,54.0,30.12,NNE,28,6.0,12.0,96,0.01,,,0.67,weatherlink.com 1.10,2014-04-19 20:57:00,
2014-04-19 17:12:00,55.1,54.0,30.13,NNE,14,3.0,11.0,96,0.01,,,0.67,weatherlink.com 1.10,2014-04-19 21:12:00,
2014-04-19 17:27:00,55.4,55.0,30.13,NE,47,1.0,5.0,97,0.01,,,0.67,weatherlink.com 1.10,2014-04-19 21:27:00,